sensor_id;sensor_type;location;lat;lon;timestamp;pressure;altitude;pressure_sealevel;temperature;humidity
21395;BME280;10858;42.714;23.180;2023-03-18T00:02:22;94802.38;;;-0.19;84.18
21395;BME280;10858;42.714;23.180;2023-03-18T00:04:48;94794.44;;;-0.16;85.11
21395;BME280;10858;42.714;23.180;2023-03-18T00:07:14;94794.13;;;-0.08;84.80
21395;BME280;10858;42.714;23.180;2023-03-18T00:09:41;94786.50;;;-0.13;84.34
21395;BME280;10858;42.714;23.180;2023-03-18T00:12:07;94787.47;;;-0.15;84.31
21395;BME280;10858;42.714;23.180;2023-03-18T00:14:37;94783.09;;;-0.15;84.52
21395;BME280;10858;42.714;23.180;2023-03-18T00:17:04;94777.03;;;-0.15;84.75
21395;BME280;10858;42.714;23.180;2023-03-18T00:19:30;94775.81;;;-0.07;83.96
21395;BME280;10858;42.714;23.180;2023-03-18T00:21:58;94769.75;;;-0.07;82.89
21395;BME280;10858;42.714;23.180;2023-03-18T00:24:25;94772.00;;;-0.20;82.70
21395;BME280;10858;42.714;23.180;2023-03-18T00:26:53;94765.44;;;-0.28;83.70
21395;BME280;10858;42.714;23.180;2023-03-18T00:29:19;94769.53;;;-0.23;83.81
21395;BME280;10858;42.714;23.180;2023-03-18T00:31:45;94768.03;;;-0.28;83.68
21395;BME280;10858;42.714;23.180;2023-03-18T00:34:12;94769.53;;;-0.23;83.24
21395;BME280;10858;42.714;23.180;2023-03-18T00:36:39;94758.41;;;-0.26;83.87
21395;BME280;10858;42.714;23.180;2023-03-18T00:39:05;94765.75;;;-0.16;83.01
21395;BME280;10858;42.714;23.180;2023-03-18T00:41:32;94756.69;;;-0.27;83.88
21395;BME280;10858;42.714;23.180;2023-03-18T00:44:01;94747.47;;;-0.36;84.84
21395;BME280;10858;42.714;23.180;2023-03-18T00:46:30;94753.91;;;-0.23;84.55
21395;BME280;10858;42.714;23.180;2023-03-18T00:48:58;94750.50;;;-0.25;84.74
21395;BME280;10858;42.714;23.180;2023-03-18T00:51:29;94745.16;;;-0.22;83.91
21395;BME280;10858;42.714;23.180;2023-03-18T00:53:58;94750.19;;;0.03;82.80
21395;BME280;10858;42.714;23.180;2023-03-18T00:56:28;94743.16;;;0.05;81.42
21395;BME280;10858;42.714;23.180;2023-03-18T00:58:55;94744.88;;;-0.36;81.98
21395;BME280;10858;42.714;23.180;2023-03-18T01:01:23;94739.38;;;-0.28;82.24
21395;BME280;10858;42.714;23.180;2023-03-18T01:03:50;94738.50;;;-0.29;82.36
21395;BME280;10858;42.714;23.180;2023-03-18T01:06:24;94734.16;;;0.12;80.90
21395;BME280;10858;42.714;23.180;2023-03-18T01:08:51;94727.69;;;0.21;79.67
21395;BME280;10858;42.714;23.180;2023-03-18T01:11:18;94733.06;;;-0.03;80.26
21395;BME280;10858;42.714;23.180;2023-03-18T01:13:45;94730.00;;;-0.12;79.92
21395;BME280;10858;42.714;23.180;2023-03-18T01:16:11;94737.34;;;-0.02;79.39
21395;BME280;10858;42.714;23.180;2023-03-18T01:18:38;94732.59;;;-0.12;79.65
21395;BME280;10858;42.714;23.180;2023-03-18T01:21:07;94733.41;;;-0.32;79.59
21395;BME280;10858;42.714;23.180;2023-03-18T01:23:35;94730.19;;;-0.17;79.80
21395;BME280;10858;42.714;23.180;2023-03-18T01:26:02;94731.59;;;-0.30;79.33
21395;BME280;10858;42.714;23.180;2023-03-18T01:28:28;94732.59;;;-0.32;79.89
21395;BME280;10858;42.714;23.180;2023-03-18T01:30:55;94726.38;;;-0.30;79.18
21395;BME280;10858;42.714;23.180;2023-03-18T01:33:23;94725.19;;;-0.43;79.37
21395;BME280;10858;42.714;23.180;2023-03-18T01:35:55;94729.34;;;-0.59;79.43
21395;BME280;10858;42.714;23.180;2023-03-18T01:38:23;94725.31;;;-0.67;80.71
21395;BME280;10858;42.714;23.180;2023-03-18T01:40:49;94734.66;;;-0.62;80.04
21395;BME280;10858;42.714;23.180;2023-03-18T01:43:19;94730.97;;;-0.56;79.75
21395;BME280;10858;42.714;23.180;2023-03-18T01:45:51;94730.16;;;-0.80;81.21
21395;BME280;10858;42.714;23.180;2023-03-18T01:48:21;94728.47;;;-1.03;82.92
21395;BME280;10858;42.714;23.180;2023-03-18T01:50:54;94723.06;;;-0.98;84.39
21395;BME280;10858;42.714;23.180;2023-03-18T01:53:29;94725.31;;;-0.89;84.16
21395;BME280;10858;42.714;23.180;2023-03-18T01:55:57;94723.72;;;-0.50;82.09
21395;BME280;10858;42.714;23.180;2023-03-18T01:58:36;94712.78;;;-0.36;80.75
21395;BME280;10858;42.714;23.180;2023-03-18T02:01:31;94711.31;;;-0.43;80.38
21395;BME280;10858;42.714;23.180;2023-03-18T02:04:01;94706.38;;;-0.71;80.35
21395;BME280;10858;42.714;23.180;2023-03-18T02:06:27;94715.94;;;-0.71;80.13
21395;BME280;10858;42.714;23.180;2023-03-18T02:08:54;94712.97;;;-0.84;80.60
21395;BME280;10858;42.714;23.180;2023-03-18T02:11:21;94705.47;;;-0.92;81.04
21395;BME280;10858;42.714;23.180;2023-03-18T02:13:48;94705.94;;;-1.04;82.78
21395;BME280;10858;42.714;23.180;2023-03-18T02:17:03;94702.31;;;-1.00;82.33
21395;BME280;10858;42.714;23.180;2023-03-18T02:22:18;94709.22;;;-0.77;79.77
21395;BME280;10858;42.714;23.180;2023-03-18T02:27:38;94705.38;;;-1.12;80.82
21395;BME280;10858;42.714;23.180;2023-03-18T02:30:13;94707.38;;;-1.18;80.81
21395;BME280;10858;42.714;23.180;2023-03-18T02:32:42;94705.97;;;-1.27;81.55
21395;BME280;10858;42.714;23.180;2023-03-18T02:35:11;94712.22;;;-1.31;81.91
21395;BME280;10858;42.714;23.180;2023-03-18T02:37:37;94698.63;;;-1.39;81.37
21395;BME280;10858;42.714;23.180;2023-03-18T02:42:48;94706.50;;;-1.40;83.93
21395;BME280;10858;42.714;23.180;2023-03-18T02:48:02;94707.59;;;-1.24;80.93
21395;BME280;10858;42.714;23.180;2023-03-18T02:50:29;94705.91;;;-1.25;80.65
21395;BME280;10858;42.714;23.180;2023-03-18T02:52:56;94712.56;;;-1.18;80.36
21395;BME280;10858;42.714;23.180;2023-03-18T02:55:23;94710.81;;;-1.18;80.61
21395;BME280;10858;42.714;23.180;2023-03-18T02:57:50;94706.47;;;-1.17;79.81
21395;BME280;10858;42.714;23.180;2023-03-18T03:00:16;94705.78;;;-1.22;79.87
21395;BME280;10858;42.714;23.180;2023-03-18T03:02:42;94712.34;;;-1.12;79.97
21395;BME280;10858;42.714;23.180;2023-03-18T03:05:10;94708.44;;;-1.01;79.32
21395;BME280;10858;42.714;23.180;2023-03-18T03:07:37;94710.81;;;-0.95;79.29
21395;BME280;10858;42.714;23.180;2023-03-18T03:10:05;94713.09;;;-1.09;80.31
21395;BME280;10858;42.714;23.180;2023-03-18T03:12:32;94705.84;;;-1.24;80.41
21395;BME280;10858;42.714;23.180;2023-03-18T03:14:58;94701.97;;;-1.35;81.94
21395;BME280;10858;42.714;23.180;2023-03-18T03:17:25;94717.47;;;-1.32;81.18
21395;BME280;10858;42.714;23.180;2023-03-18T03:19:51;94707.50;;;-1.21;80.79
21395;BME280;10858;42.714;23.180;2023-03-18T03:22:17;94710.19;;;-1.24;81.17
21395;BME280;10858;42.714;23.180;2023-03-18T03:24:44;94716.94;;;-1.42;83.74
21395;BME280;10858;42.714;23.180;2023-03-18T03:27:10;94706.28;;;-1.34;83.56
21395;BME280;10858;42.714;23.180;2023-03-18T03:29:37;94711.91;;;-1.23;82.04
21395;BME280;10858;42.714;23.180;2023-03-18T03:32:04;94713.09;;;-1.09;81.49
21395;BME280;10858;42.714;23.180;2023-03-18T03:34:30;94713.56;;;-0.99;80.81
21395;BME280;10858;42.714;23.180;2023-03-18T03:36:56;94711.16;;;-1.04;80.96
21395;BME280;10858;42.714;23.180;2023-03-18T03:39:23;94710.53;;;-1.10;80.58
21395;BME280;10858;42.714;23.180;2023-03-18T03:41:49;94716.47;;;-1.07;80.36
21395;BME280;10858;42.714;23.180;2023-03-18T03:44:16;94716.72;;;-1.13;80.76
21395;BME280;10858;42.714;23.180;2023-03-18T03:46:42;94715.69;;;-1.32;80.55
21395;BME280;10858;42.714;23.180;2023-03-18T03:49:08;94725.84;;;-1.47;80.48
21395;BME280;10858;42.714;23.180;2023-03-18T03:51:34;94729.59;;;-1.54;80.24
21395;BME280;10858;42.714;23.180;2023-03-18T03:54:01;94727.22;;;-1.62;80.86
21395;BME280;10858;42.714;23.180;2023-03-18T03:56:28;94730.91;;;-1.67;81.08
21395;BME280;10858;42.714;23.180;2023-03-18T03:58:56;94723.97;;;-1.67;81.06
21395;BME280;10858;42.714;23.180;2023-03-18T04:01:22;94730.59;;;-1.58;80.73
21395;BME280;10858;42.714;23.180;2023-03-18T04:03:49;94727.88;;;-1.55;80.13
21395;BME280;10858;42.714;23.180;2023-03-18T04:06:15;94730.75;;;-1.88;80.75
21395;BME280;10858;42.714;23.180;2023-03-18T04:08:41;94730.47;;;-1.79;81.31
21395;BME280;10858;42.714;23.180;2023-03-18T04:11:08;94742.31;;;-1.72;80.89
21395;BME280;10858;42.714;23.180;2023-03-18T04:13:34;94738.53;;;-1.38;78.03
21395;BME280;10858;42.714;23.180;2023-03-18T04:16:01;94734.66;;;-1.51;78.37
21395;BME280;10858;42.714;23.180;2023-03-18T04:18:27;94743.59;;;-1.83;81.10
21395;BME280;10858;42.714;23.180;2023-03-18T04:20:53;94737.25;;;-1.75;80.83
21395;BME280;10858;42.714;23.180;2023-03-18T04:23:20;94745.06;;;-1.76;80.58
21395;BME280;10858;42.714;23.180;2023-03-18T04:25:46;94746.28;;;-1.61;79.14
21395;BME280;10858;42.714;23.180;2023-03-18T04:28:12;94750.16;;;-1.48;78.12
21395;BME280;10858;42.714;23.180;2023-03-18T04:30:39;94750.44;;;-1.33;77.66
21395;BME280;10858;42.714;23.180;2023-03-18T04:33:05;94751.78;;;-1.23;77.40
21395;BME280;10858;42.714;23.180;2023-03-18T04:35:31;94752.41;;;-1.16;77.53
21395;BME280;10858;42.714;23.180;2023-03-18T04:37:59;94751.38;;;-1.12;77.44
21395;BME280;10858;42.714;23.180;2023-03-18T04:40:25;94756.34;;;-0.83;77.12
21395;BME280;10858;42.714;23.180;2023-03-18T04:42:51;94759.97;;;-0.44;75.88
21395;BME280;10858;42.714;23.180;2023-03-18T04:45:18;94755.72;;;-0.25;76.81
21395;BME280;10858;42.714;23.180;2023-03-18T04:47:45;94757.38;;;-0.22;77.14
21395;BME280;10858;42.714;23.180;2023-03-18T04:50:12;94766.06;;;-0.23;77.99
21395;BME280;10858;42.714;23.180;2023-03-18T04:52:39;94763.44;;;-0.02;79.20
21395;BME280;10858;42.714;23.180;2023-03-18T04:55:07;94767.22;;;0.32;79.18
21395;BME280;10858;42.714;23.180;2023-03-18T04:57:34;94770.19;;;0.63;78.92
21395;BME280;10858;42.714;23.180;2023-03-18T05:00:04;94773.81;;;0.79;78.45
21395;BME280;10858;42.714;23.180;2023-03-18T05:02:30;94770.38;;;0.97;78.84
21395;BME280;10858;42.714;23.180;2023-03-18T05:04:57;94768.72;;;0.96;77.91
21395;BME280;10858;42.714;23.180;2023-03-18T05:07:23;94772.94;;;0.80;78.23
21395;BME280;10858;42.714;23.180;2023-03-18T05:09:49;94778.06;;;0.81;78.36
21395;BME280;10858;42.714;23.180;2023-03-18T05:12:16;94771.16;;;0.99;79.20
21395;BME280;10858;42.714;23.180;2023-03-18T05:14:43;94774.56;;;1.20;78.94
21395;BME280;10858;42.714;23.180;2023-03-18T05:17:10;94778.38;;;1.13;78.88
21395;BME280;10858;42.714;23.180;2023-03-18T05:19:44;94777.81;;;1.06;79.51
21395;BME280;10858;42.714;23.180;2023-03-18T05:22:12;94779.50;;;1.07;78.64
21395;BME280;10858;42.714;23.180;2023-03-18T05:24:39;94776.78;;;1.10;79.21
21395;BME280;10858;42.714;23.180;2023-03-18T05:27:06;94774.94;;;1.12;79.34
21395;BME280;10858;42.714;23.180;2023-03-18T05:29:33;94777.31;;;1.17;80.37
21395;BME280;10858;42.714;23.180;2023-03-18T05:31:59;94770.34;;;1.17;79.62
21395;BME280;10858;42.714;23.180;2023-03-18T05:34:25;94780.22;;;1.29;80.94
21395;BME280;10858;42.714;23.180;2023-03-18T05:36:52;94776.34;;;1.38;80.66
21395;BME280;10858;42.714;23.180;2023-03-18T05:39:18;94767.09;;;1.12;81.00
21395;BME280;10858;42.714;23.180;2023-03-18T05:41:44;94768.38;;;1.22;82.34
21395;BME280;10858;42.714;23.180;2023-03-18T05:44:10;94761.72;;;1.15;82.02
21395;BME280;10858;42.714;23.180;2023-03-18T05:46:36;94775.53;;;1.54;82.56
21395;BME280;10858;42.714;23.180;2023-03-18T05:49:03;94774.84;;;1.32;81.69
21395;BME280;10858;42.714;23.180;2023-03-18T05:51:29;94776.25;;;1.58;81.59
21395;BME280;10858;42.714;23.180;2023-03-18T05:53:55;94779.59;;;1.79;81.30
21395;BME280;10858;42.714;23.180;2023-03-18T05:56:21;94785.75;;;1.95;81.28
21395;BME280;10858;42.714;23.180;2023-03-18T05:58:49;94777.56;;;2.53;80.70
21395;BME280;10858;42.714;23.180;2023-03-18T06:01:16;94781.38;;;2.81;78.80
21395;BME280;10858;42.714;23.180;2023-03-18T06:03:42;94787.00;;;3.38;78.60
21395;BME280;10858;42.714;23.180;2023-03-18T06:06:09;94798.50;;;3.67;78.18
21395;BME280;10858;42.714;23.180;2023-03-18T06:08:35;94797.03;;;3.79;76.60
21395;BME280;10858;42.714;23.180;2023-03-18T06:11:01;94802.66;;;3.40;77.73
21395;BME280;10858;42.714;23.180;2023-03-18T06:13:29;94803.53;;;3.08;77.26
21395;BME280;10858;42.714;23.180;2023-03-18T06:15:56;94807.09;;;2.73;78.72
21395;BME280;10858;42.714;23.180;2023-03-18T06:18:23;94802.88;;;2.87;77.99
21395;BME280;10858;42.714;23.180;2023-03-18T06:20:49;94806.38;;;3.03;77.33
21395;BME280;10858;42.714;23.180;2023-03-18T06:23:16;94802.63;;;2.92;78.29
21395;BME280;10858;42.714;23.180;2023-03-18T06:25:42;94810.44;;;2.76;78.83
21395;BME280;10858;42.714;23.180;2023-03-18T06:28:08;94802.81;;;3.37;79.00
21395;BME280;10858;42.714;23.180;2023-03-18T06:30:34;94805.94;;;3.43;77.47
21395;BME280;10858;42.714;23.180;2023-03-18T06:33:01;94802.09;;;3.51;76.75
21395;BME280;10858;42.714;23.180;2023-03-18T06:35:27;94802.31;;;3.30;77.83
21395;BME280;10858;42.714;23.180;2023-03-18T06:37:54;94791.31;;;3.55;77.27
21395;BME280;10858;42.714;23.180;2023-03-18T06:40:21;94784.63;;;3.50;77.18
21395;BME280;10858;42.714;23.180;2023-03-18T06:42:49;94784.72;;;3.48;78.14
21395;BME280;10858;42.714;23.180;2023-03-18T06:45:16;94785.31;;;3.53;77.26
21395;BME280;10858;42.714;23.180;2023-03-18T06:47:43;94782.09;;;3.32;77.45
21395;BME280;10858;42.714;23.180;2023-03-18T06:50:10;94778.63;;;3.32;78.27
21395;BME280;10858;42.714;23.180;2023-03-18T06:52:37;94776.69;;;3.35;78.03
21395;BME280;10858;42.714;23.180;2023-03-18T06:55:04;94771.47;;;3.67;76.94
21395;BME280;10858;42.714;23.180;2023-03-18T06:57:31;94773.66;;;3.59;77.20
21395;BME280;10858;42.714;23.180;2023-03-18T06:59:59;94776.44;;;4.32;75.25
21395;BME280;10858;42.714;23.180;2023-03-18T07:02:26;94773.38;;;4.97;76.47
21395;BME280;10858;42.714;23.180;2023-03-18T07:04:52;94776.75;;;5.56;71.55
21395;BME280;10858;42.714;23.180;2023-03-18T07:07:19;94777.78;;;5.53;71.79
21395;BME280;10858;42.714;23.180;2023-03-18T07:09:47;94775.97;;;4.69;72.65
21395;BME280;10858;42.714;23.180;2023-03-18T07:12:13;94777.16;;;5.36;75.41
21395;BME280;10858;42.714;23.180;2023-03-18T07:14:40;94774.00;;;5.71;70.91
21395;BME280;10858;42.714;23.180;2023-03-18T07:17:08;94774.16;;;6.50;72.54
21395;BME280;10858;42.714;23.180;2023-03-18T07:19:35;94773.81;;;7.44;66.74
21395;BME280;10858;42.714;23.180;2023-03-18T07:22:01;94766.44;;;8.69;61.91
21395;BME280;10858;42.714;23.180;2023-03-18T07:24:27;94765.19;;;9.53;58.33
21395;BME280;10858;42.714;23.180;2023-03-18T07:26:56;94777.22;;;9.90;56.32
21395;BME280;10858;42.714;23.180;2023-03-18T07:29:22;94771.06;;;11.89;51.54
21395;BME280;10858;42.714;23.180;2023-03-18T07:31:49;94762.19;;;12.88;46.32
21395;BME280;10858;42.714;23.180;2023-03-18T07:34:16;94774.66;;;12.68;46.38
21395;BME280;10858;42.714;23.180;2023-03-18T07:36:43;94779.34;;;11.04;49.42
21395;BME280;10858;42.714;23.180;2023-03-18T07:39:10;94772.22;;;9.08;52.36
21395;BME280;10858;42.714;23.180;2023-03-18T07:41:36;94777.94;;;9.48;53.80
21395;BME280;10858;42.714;23.180;2023-03-18T07:44:03;94779.63;;;9.49;52.85
21395;BME280;10858;42.714;23.180;2023-03-18T07:46:30;94776.78;;;10.50;51.31
21395;BME280;10858;42.714;23.180;2023-03-18T07:48:56;94767.06;;;11.44;50.76
21395;BME280;10858;42.714;23.180;2023-03-18T07:51:22;94773.16;;;13.32;49.64
21395;BME280;10858;42.714;23.180;2023-03-18T07:53:48;94781.88;;;14.17;43.72
21395;BME280;10858;42.714;23.180;2023-03-18T07:56:16;94778.63;;;13.21;49.08
21395;BME280;10858;42.714;23.180;2023-03-18T07:58:43;94784.19;;;12.12;50.34
21395;BME280;10858;42.714;23.180;2023-03-18T08:01:09;94773.78;;;11.99;49.15
21395;BME280;10858;42.714;23.180;2023-03-18T08:03:37;94775.88;;;11.95;46.31
21395;BME280;10858;42.714;23.180;2023-03-18T08:06:03;94774.44;;;11.20;50.63
21395;BME280;10858;42.714;23.180;2023-03-18T08:08:29;94766.41;;;13.19;46.35
21395;BME280;10858;42.714;23.180;2023-03-18T08:10:56;94770.31;;;14.36;42.44
21395;BME280;10858;42.714;23.180;2023-03-18T08:13:23;94774.25;;;13.58;43.68
21395;BME280;10858;42.714;23.180;2023-03-18T08:15:50;94774.56;;;13.36;42.50
21395;BME280;10858;42.714;23.180;2023-03-18T08:18:17;94775.22;;;13.57;43.86
21395;BME280;10858;42.714;23.180;2023-03-18T08:20:43;94767.50;;;14.01;41.21
21395;BME280;10858;42.714;23.180;2023-03-18T08:23:10;94769.19;;;13.55;41.82
21395;BME280;10858;42.714;23.180;2023-03-18T08:25:37;94771.94;;;14.91;39.20
21395;BME280;10858;42.714;23.180;2023-03-18T08:28:03;94762.72;;;15.21;40.78
21395;BME280;10858;42.714;23.180;2023-03-18T08:30:33;94759.84;;;15.58;39.36
21395;BME280;10858;42.714;23.180;2023-03-18T08:33:00;94769.78;;;14.32;40.51
21395;BME280;10858;42.714;23.180;2023-03-18T08:35:26;94769.16;;;13.75;40.65
21395;BME280;10858;42.714;23.180;2023-03-18T08:37:52;94769.19;;;12.79;42.25
21395;BME280;10858;42.714;23.180;2023-03-18T08:40:19;94765.28;;;12.64;42.13
21395;BME280;10858;42.714;23.180;2023-03-18T08:42:45;94770.22;;;13.16;41.51
21395;BME280;10858;42.714;23.180;2023-03-18T08:45:12;94771.44;;;13.03;41.76
21395;BME280;10858;42.714;23.180;2023-03-18T08:47:39;94762.50;;;12.94;41.86
21395;BME280;10858;42.714;23.180;2023-03-18T08:50:06;94765.34;;;13.68;41.62
21395;BME280;10858;42.714;23.180;2023-03-18T08:52:34;94764.41;;;13.69;41.55
21395;BME280;10858;42.714;23.180;2023-03-18T08:55:00;94775.31;;;14.48;40.66
21395;BME280;10858;42.714;23.180;2023-03-18T08:57:26;94773.22;;;14.06;40.70
21395;BME280;10858;42.714;23.180;2023-03-18T08:59:53;94772.25;;;14.07;40.47
21395;BME280;10858;42.714;23.180;2023-03-18T09:02:19;94770.53;;;13.79;40.43
21395;BME280;10858;42.714;23.180;2023-03-18T09:04:45;94774.00;;;13.04;43.01
21395;BME280;10858;42.714;23.180;2023-03-18T09:07:13;94773.66;;;13.55;43.17
21395;BME280;10858;42.714;23.180;2023-03-18T09:09:39;94773.16;;;12.85;44.32
21395;BME280;10858;42.714;23.180;2023-03-18T09:12:06;94773.97;;;12.75;43.90
21395;BME280;10858;42.714;23.180;2023-03-18T09:14:33;94770.75;;;12.23;46.00
21395;BME280;10858;42.714;23.180;2023-03-18T09:16:59;94771.44;;;12.93;44.35
21395;BME280;10858;42.714;23.180;2023-03-18T09:19:26;94771.72;;;13.47;41.80
21395;BME280;10858;42.714;23.180;2023-03-18T09:21:52;94763.88;;;12.79;43.46
21395;BME280;10858;42.714;23.180;2023-03-18T09:24:18;94773.41;;;11.83;43.56
21395;BME280;10858;42.714;23.180;2023-03-18T09:26:45;94771.06;;;12.20;43.11
21395;BME280;10858;42.714;23.180;2023-03-18T09:29:12;94769.34;;;12.97;44.40
21395;BME280;10858;42.714;23.180;2023-03-18T09:31:38;94765.72;;;13.92;39.75
21395;BME280;10858;42.714;23.180;2023-03-18T09:34:05;94767.09;;;13.49;37.32
21395;BME280;10858;42.714;23.180;2023-03-18T09:36:31;94768.94;;;13.39;38.45
21395;BME280;10858;42.714;23.180;2023-03-18T09:38:58;94767.25;;;13.38;38.57
21395;BME280;10858;42.714;23.180;2023-03-18T09:50:03;94759.66;;;14.26;34.73
21395;BME280;10858;42.714;23.180;2023-03-18T09:53:10;94756.63;;;15.72;35.06
21395;BME280;10858;42.714;23.180;2023-03-18T09:55:52;94746.53;;;15.66;35.30
21395;BME280;10858;42.714;23.180;2023-03-18T09:58:44;94752.16;;;14.84;35.13
21395;BME280;10858;42.714;23.180;2023-03-18T10:01:13;94761.06;;;14.75;35.91
21395;BME280;10858;42.714;23.180;2023-03-18T10:03:50;94751.03;;;15.04;34.15
21395;BME280;10858;42.714;23.180;2023-03-18T10:06:21;94754.84;;;15.55;32.18
21395;BME280;10858;42.714;23.180;2023-03-18T10:11:50;94751.25;;;16.23;34.28
21395;BME280;10858;42.714;23.180;2023-03-18T10:14:32;94754.91;;;16.22;34.08
21395;BME280;10858;42.714;23.180;2023-03-18T10:17:13;94753.81;;;15.81;33.22
21395;BME280;10858;42.714;23.180;2023-03-18T10:19:47;94750.34;;;15.81;32.43
21395;BME280;10858;42.714;23.180;2023-03-18T10:25:25;94753.22;;;12.89;37.12
21395;BME280;10858;42.714;23.180;2023-03-18T10:34:07;94755.03;;;12.50;35.52
21395;BME280;10858;42.714;23.180;2023-03-18T10:39:22;94748.75;;;14.20;33.00
21395;BME280;10858;42.714;23.180;2023-03-18T10:41:54;94738.94;;;14.65;36.46
21395;BME280;10858;42.714;23.180;2023-03-18T10:44:27;94741.50;;;16.56;31.08
21395;BME280;10858;42.714;23.180;2023-03-18T10:49:33;94741.41;;;12.24;37.34
21395;BME280;10858;42.714;23.180;2023-03-18T10:54:51;94731.38;;;12.85;36.04
21395;BME280;10858;42.714;23.180;2023-03-18T10:57:19;94735.56;;;11.40;38.88
21395;BME280;10858;42.714;23.180;2023-03-18T10:59:47;94741.72;;;10.47;42.24
21395;BME280;10858;42.714;23.180;2023-03-18T11:02:18;94737.19;;;10.26;41.38
21395;BME280;10858;42.714;23.180;2023-03-18T11:04:52;94738.69;;;9.86;43.60
21395;BME280;10858;42.714;23.180;2023-03-18T11:07:25;94746.63;;;9.86;44.19
21395;BME280;10858;42.714;23.180;2023-03-18T11:09:52;94739.28;;;10.01;42.70
21395;BME280;10858;42.714;23.180;2023-03-18T11:12:24;94734.97;;;9.78;43.80
21395;BME280;10858;42.714;23.180;2023-03-18T11:14:51;94737.47;;;9.68;43.40
21395;BME280;10858;42.714;23.180;2023-03-18T11:17:30;94736.38;;;9.93;42.97
21395;BME280;10858;42.714;23.180;2023-03-18T11:22:30;94745.41;;;10.01;43.22
21395;BME280;10858;42.714;23.180;2023-03-18T11:25:04;94747.44;;;10.09;44.25
21395;BME280;10858;42.714;23.180;2023-03-18T11:27:42;94743.06;;;10.41;43.47
21395;BME280;10858;42.714;23.180;2023-03-18T11:30:29;94740.53;;;10.40;42.28
21395;BME280;10858;42.714;23.180;2023-03-18T11:33:05;94730.66;;;10.31;41.93
21395;BME280;10858;42.714;23.180;2023-03-18T11:35:54;94735.81;;;10.75;41.71
21395;BME280;10858;42.714;23.180;2023-03-18T11:38:27;94726.13;;;10.85;42.29
21395;BME280;10858;42.714;23.180;2023-03-18T11:43:34;94731.31;;;12.18;36.73
21395;BME280;10858;42.714;23.180;2023-03-18T11:48:34;94721.19;;;14.74;33.69
21395;BME280;10858;42.714;23.180;2023-03-18T11:56:46;94711.25;;;14.48;29.61
21395;BME280;10858;42.714;23.180;2023-03-18T11:59:45;94714.22;;;14.18;30.18
21395;BME280;10858;42.714;23.180;2023-03-18T12:08:32;94705.63;;;15.99;29.71
21395;BME280;10858;42.714;23.180;2023-03-18T12:22:59;94699.72;;;12.82;35.40
21395;BME280;10858;42.714;23.180;2023-03-18T12:33:47;94709.72;;;12.21;33.23
21395;BME280;10858;42.714;23.180;2023-03-18T12:39:24;94705.22;;;11.12;34.58
21395;BME280;10858;42.714;23.180;2023-03-18T12:47:10;94706.56;;;10.86;35.20
21395;BME280;10858;42.714;23.180;2023-03-18T12:49:59;94708.66;;;10.51;37.33
21395;BME280;10858;42.714;23.180;2023-03-18T12:52:30;94711.41;;;10.06;37.48
21395;BME280;10858;42.714;23.180;2023-03-18T12:55:11;94708.84;;;9.73;37.95
21395;BME280;10858;42.714;23.180;2023-03-18T13:03:40;94702.13;;;15.29;27.85
21395;BME280;10858;42.714;23.180;2023-03-18T13:09:21;94696.84;;;16.23;25.86
21395;BME280;10858;42.714;23.180;2023-03-18T13:17:38;94684.38;;;15.20;29.32
21395;BME280;10858;42.714;23.180;2023-03-18T13:28:29;94706.50;;;10.45;34.58
21395;BME280;10858;42.714;23.180;2023-03-18T13:43:33;94707.78;;;12.33;33.80
21395;BME280;10858;42.714;23.180;2023-03-18T13:46:03;94707.97;;;11.31;35.25
21395;BME280;10858;42.714;23.180;2023-03-18T13:48:31;94709.16;;;10.97;36.30
21395;BME280;10858;42.714;23.180;2023-03-18T13:53:46;94705.16;;;10.18;38.25
21395;BME280;10858;42.714;23.180;2023-03-18T14:02:40;94696.63;;;12.48;32.08
21395;BME280;10858;42.714;23.180;2023-03-18T14:07:58;94696.22;;;11.24;34.35
21395;BME280;10858;42.714;23.180;2023-03-18T14:10:28;94696.47;;;12.50;33.53
21395;BME280;10858;42.714;23.180;2023-03-18T14:12:55;94691.13;;;14.00;29.38
21395;BME280;10858;42.714;23.180;2023-03-18T14:15:41;94684.22;;;13.80;29.87
21395;BME280;10858;42.714;23.180;2023-03-18T14:18:23;94676.97;;;15.14;28.25
21395;BME280;10858;42.714;23.180;2023-03-18T14:20:58;94688.28;;;16.11;27.19
21395;BME280;10858;42.714;23.180;2023-03-18T14:23:28;94682.16;;;16.27;27.62
21395;BME280;10858;42.714;23.180;2023-03-18T14:26:21;94687.75;;;15.74;27.45
21395;BME280;10858;42.714;23.180;2023-03-18T14:36:47;94685.69;;;15.68;27.35
21395;BME280;10858;42.714;23.180;2023-03-18T14:39:43;94685.97;;;15.31;28.10
21395;BME280;10858;42.714;23.180;2023-03-18T14:42:28;94693.28;;;15.11;26.65
21395;BME280;10858;42.714;23.180;2023-03-18T14:47:54;94684.72;;;15.43;26.62
21395;BME280;10858;42.714;23.180;2023-03-18T14:50:30;94697.66;;;15.56;27.87
21395;BME280;10858;42.714;23.180;2023-03-18T14:53:20;94691.97;;;15.51;26.92
21395;BME280;10858;42.714;23.180;2023-03-18T14:55:49;94696.22;;;15.00;27.64
21395;BME280;10858;42.714;23.180;2023-03-18T14:58:21;94692.81;;;15.33;27.48
21395;BME280;10858;42.714;23.180;2023-03-18T15:00:54;94695.13;;;15.28;27.56
21395;BME280;10858;42.714;23.180;2023-03-18T15:03:28;94696.09;;;14.84;28.97
21395;BME280;10858;42.714;23.180;2023-03-18T15:05:57;94696.63;;;14.70;29.06
21395;BME280;10858;42.714;23.180;2023-03-18T15:08:27;94694.19;;;14.77;28.41
21395;BME280;10858;42.714;23.180;2023-03-18T15:10:54;94704.00;;;13.77;28.82
21395;BME280;10858;42.714;23.180;2023-03-18T15:13:23;94696.94;;;13.86;29.98
21395;BME280;10858;42.714;23.180;2023-03-18T15:15:52;94691.69;;;14.21;29.29
21395;BME280;10858;42.714;23.180;2023-03-18T15:18:26;94702.13;;;13.97;30.34
21395;BME280;10858;42.714;23.180;2023-03-18T15:21:00;94711.50;;;14.01;28.71
21395;BME280;10858;42.714;23.180;2023-03-18T15:23:35;94704.81;;;13.41;28.23
21395;BME280;10858;42.714;23.180;2023-03-18T15:26:21;94704.75;;;13.70;29.22
21395;BME280;10858;42.714;23.180;2023-03-18T15:28:56;94708.63;;;13.75;28.46
21395;BME280;10858;42.714;23.180;2023-03-18T15:31:30;94711.81;;;13.51;28.87